createdAt,value
2022-10-31T00:01:32.281Z,9.51
2022-10-31T00:03:58.941Z,9.48
2022-10-31T00:06:26.096Z,9.42
2022-10-31T00:08:55.278Z,9.42
2022-10-31T00:11:22.138Z,9.30
2022-10-31T00:13:48.828Z,9.20
2022-10-31T00:16:17.671Z,9.32
2022-10-31T00:18:44.668Z,9.12
2022-10-31T00:21:11.292Z,9.18
2022-10-31T00:23:37.899Z,9.07
2022-10-31T00:26:06.372Z,9.20
2022-10-31T00:28:33.231Z,9.24
2022-10-31T00:31:05.271Z,9.25
2022-10-31T00:33:35.658Z,9.24
2022-10-31T00:36:05.579Z,9.24
2022-10-31T00:38:32.408Z,9.21
2022-10-31T00:40:58.934Z,8.88
2022-10-31T00:43:28.012Z,8.96
2022-10-31T00:45:54.522Z,8.93
2022-10-31T00:48:25.520Z,8.88
2022-10-31T00:50:52.044Z,8.98
2022-10-31T00:53:18.628Z,9.04
2022-10-31T00:55:45.177Z,9.10
2022-10-31T00:58:11.722Z,9.04
2022-10-31T01:00:38.354Z,8.79
2022-10-31T01:03:04.902Z,8.84
2022-10-31T01:05:36.158Z,8.81
2022-10-31T01:08:02.662Z,8.82
2022-10-31T01:10:29.204Z,8.79
2022-10-31T01:12:55.726Z,8.77
2022-10-31T01:15:23.506Z,8.73
2022-10-31T01:17:50.893Z,8.84
2022-10-31T01:20:18.206Z,8.88
2022-10-31T01:22:44.852Z,8.99
2022-10-31T01:25:11.793Z,9.07
2022-10-31T01:27:38.351Z,9.07
2022-10-31T01:30:06.318Z,8.87
2022-10-31T01:32:33.286Z,8.87
2022-10-31T01:34:59.880Z,8.66
2022-10-31T01:37:26.475Z,8.42
2022-10-31T01:39:53.038Z,8.28
2022-10-31T01:42:22.607Z,8.27
2022-10-31T01:44:56.129Z,8.29
2022-10-31T01:47:33.480Z,8.24
2022-10-31T01:50:03.563Z,8.25
2022-10-31T01:52:39.802Z,8.26
2022-10-31T01:55:12.836Z,8.25
2022-10-31T01:57:42.568Z,8.32
2022-10-31T02:00:10.706Z,8.42
2022-10-31T02:02:37.606Z,8.53
2022-10-31T02:05:11.457Z,8.48
2022-10-31T02:07:40.983Z,8.26
2022-10-31T02:10:07.809Z,8.24
2022-10-31T02:12:37.113Z,8.20
2022-10-31T02:15:04.834Z,8.19
2022-10-31T02:17:32.742Z,8.23
2022-10-31T02:20:35.828Z,8.27
2022-10-31T02:23:27.165Z,8.36
2022-10-31T02:26:11.690Z,8.32
2022-10-31T02:28:58.563Z,8.28
2022-10-31T02:31:33.788Z,8.18
2022-10-31T02:34:09.975Z,8.08
2022-10-31T02:36:48.179Z,8.01
2022-10-31T02:39:30.131Z,8.01
2022-10-31T02:42:14.892Z,8.10
2022-10-31T02:44:51.114Z,8.14
2022-10-31T02:47:28.580Z,8.10
2022-10-31T02:50:00.683Z,8.15
2022-10-31T02:52:27.137Z,8.07
2022-10-31T02:54:54.079Z,8.06
2022-10-31T02:57:28.152Z,7.98
2022-10-31T02:59:59.503Z,7.84
2022-10-31T03:02:29.143Z,7.86
2022-10-31T03:05:10.369Z,7.76
2022-10-31T03:07:46.098Z,7.70
2022-10-31T03:10:32.813Z,7.73
2022-10-31T03:13:05.700Z,7.80
2022-10-31T03:15:36.507Z,7.77
2022-10-31T03:18:10.466Z,7.67
2022-10-31T03:20:53.412Z,7.71
2022-10-31T03:23:25.525Z,7.74
2022-10-31T03:25:55.028Z,7.81
2022-10-31T03:28:28.098Z,7.84
2022-10-31T03:30:55.814Z,7.86
2022-10-31T03:33:29.341Z,7.73
2022-10-31T03:35:58.373Z,7.79
2022-10-31T03:38:24.921Z,7.85
2022-10-31T03:40:54.794Z,7.96
2022-10-31T03:43:29.964Z,7.81
2022-10-31T03:45:57.394Z,7.67
2022-10-31T03:48:24.660Z,7.74
2022-10-31T03:50:56.778Z,7.77
2022-10-31T03:53:33.167Z,7.75
2022-10-31T03:56:02.348Z,7.52
2022-10-31T03:58:38.248Z,7.53
2022-10-31T04:01:14.814Z,7.47
2022-10-31T04:03:43.282Z,7.42
2022-10-31T04:06:13.176Z,7.35
2022-10-31T04:08:45.280Z,7.36
2022-10-31T04:11:14.881Z,7.55
2022-10-31T04:13:45.064Z,7.48
2022-10-31T04:16:16.900Z,7.55
2022-10-31T04:18:44.129Z,7.58
2022-10-31T04:21:10.633Z,7.66
2022-10-31T04:23:37.411Z,7.62
2022-10-31T04:26:04.554Z,7.60
2022-10-31T04:28:31.127Z,7.22
2022-10-31T04:30:57.676Z,7.34
2022-10-31T04:33:24.198Z,7.37
2022-10-31T04:35:50.747Z,7.29
2022-10-31T04:38:17.287Z,7.18
2022-10-31T04:40:43.910Z,7.13
2022-10-31T04:43:10.481Z,7.11
2022-10-31T04:45:38.249Z,7.07
2022-10-31T04:48:05.065Z,7.12
2022-10-31T04:50:31.587Z,7.22
2022-10-31T04:52:58.259Z,7.23
2022-10-31T04:55:24.797Z,7.07
2022-10-31T04:57:51.922Z,7.15
2022-10-31T05:00:23.193Z,7.04
2022-10-31T05:02:51.625Z,7.10
2022-10-31T05:05:21.177Z,7.04
2022-10-31T05:07:49.215Z,6.99
2022-10-31T05:10:19.422Z,6.96
2022-10-31T05:12:50.464Z,7.05
2022-10-31T05:15:18.720Z,7.05
2022-10-31T05:17:45.868Z,7.04
2022-10-31T05:20:16.893Z,7.17
2022-10-31T05:22:48.388Z,7.20
2022-10-31T05:25:15.684Z,7.18
2022-10-31T05:27:50.045Z,7.23
2022-10-31T05:30:25.417Z,7.37
2022-10-31T05:32:52.388Z,7.43
2022-10-31T05:35:23.212Z,7.52
2022-10-31T05:37:50.152Z,7.52
2022-10-31T05:40:18.705Z,7.37
2022-10-31T05:42:45.783Z,7.44
2022-10-31T05:45:15.801Z,7.31
2022-10-31T05:47:43.030Z,7.39
2022-10-31T05:50:10.936Z,7.24
2022-10-31T05:52:37.644Z,7.32
2022-10-31T05:55:04.680Z,7.31
2022-10-31T05:57:33.190Z,7.40
2022-10-31T05:59:59.782Z,7.24
2022-10-31T06:02:27.736Z,7.21
2022-10-31T06:04:54.377Z,7.28
2022-10-31T06:07:20.985Z,7.13
2022-10-31T06:09:47.576Z,7.18
2022-10-31T06:12:14.075Z,7.16
2022-10-31T06:14:40.595Z,7.20
2022-10-31T06:17:07.167Z,7.18
2022-10-31T06:19:36.057Z,7.32
2022-10-31T06:22:03.284Z,7.47
2022-10-31T06:24:29.787Z,7.62
2022-10-31T06:26:56.309Z,7.77
2022-10-31T06:29:23.187Z,7.93
2022-10-31T06:31:52.622Z,7.49
2022-10-31T06:34:19.143Z,7.52
2022-10-31T06:36:47.758Z,7.70
2022-10-31T06:39:15.001Z,7.77
2022-10-31T06:41:42.522Z,7.77
2022-10-31T06:44:09.184Z,7.78
2022-10-31T06:46:35.712Z,7.81
2022-10-31T06:49:02.233Z,7.86
2022-10-31T06:51:28.772Z,7.93
2022-10-31T06:53:55.347Z,7.90
2022-10-31T06:56:21.902Z,7.85
2022-10-31T06:58:50.805Z,7.86
2022-10-31T07:01:17.444Z,8.13
2022-10-31T07:03:44.082Z,8.74
2022-10-31T07:06:10.608Z,8.92
2022-10-31T07:08:37.241Z,8.90
2022-10-31T07:11:03.810Z,9.18
2022-10-31T07:13:30.412Z,9.01
2022-10-31T07:16:02.287Z,9.15
2022-10-31T07:18:29.160Z,9.11
2022-10-31T07:20:55.776Z,9.19
2022-10-31T07:23:23.537Z,9.34
2022-10-31T07:25:55.519Z,9.40
2022-10-31T07:28:24.570Z,9.27
2022-10-31T07:30:55.845Z,9.10
2022-10-31T07:33:23.295Z,9.17
2022-10-31T07:35:50.183Z,9.13
2022-10-31T07:38:16.862Z,9.17
2022-10-31T07:40:43.677Z,9.16
2022-10-31T07:43:14.666Z,9.12
2022-10-31T07:45:41.775Z,9.14
2022-10-31T07:48:10.785Z,9.29
2022-10-31T07:50:37.376Z,9.33
2022-10-31T07:53:04.231Z,9.37
2022-10-31T07:55:31.439Z,9.46
2022-10-31T07:57:59.597Z,9.55
2022-10-31T08:00:27.439Z,9.56
2022-10-31T08:03:01.956Z,9.59
2022-10-31T08:05:29.895Z,9.82
2022-10-31T08:07:57.167Z,9.78
2022-10-31T08:10:24.933Z,10.07
2022-10-31T08:12:59.188Z,10.08
2022-10-31T08:15:26.434Z,10.14
2022-10-31T08:17:52.959Z,10.21
2022-10-31T08:20:20.193Z,10.23
2022-10-31T08:22:57.441Z,10.29
2022-10-31T08:25:27.196Z,10.55
2022-10-31T08:27:55.447Z,10.75
2022-10-31T08:30:24.068Z,10.60
2022-10-31T08:33:08.401Z,10.53
2022-10-31T08:35:35.033Z,10.81
2022-10-31T08:38:02.941Z,10.91
2022-10-31T08:40:31.883Z,11.07
2022-10-31T08:43:07.117Z,11.05
2022-10-31T08:45:34.897Z,10.98
2022-10-31T08:48:04.541Z,11.05
2022-10-31T08:50:36.153Z,11.10
2022-10-31T08:53:05.961Z,11.31
2022-10-31T08:55:35.677Z,11.45
2022-10-31T08:58:06.108Z,11.46
2022-10-31T09:00:34.043Z,11.68
2022-10-31T09:03:06.199Z,11.72
2022-10-31T09:05:33.625Z,11.75
2022-10-31T09:08:02.413Z,11.80
2022-10-31T09:10:30.038Z,12.13
2022-10-31T09:13:18.637Z,12.07
2022-10-31T09:15:47.042Z,12.02
2022-10-31T09:18:15.950Z,12.08
2022-10-31T09:20:44.029Z,12.10
2022-10-31T09:23:16.858Z,12.24
2022-10-31T09:25:50.013Z,12.46
2022-10-31T09:28:19.250Z,12.59
2022-10-31T09:30:48.821Z,12.78
2022-10-31T09:33:15.662Z,12.89
2022-10-31T09:35:42.743Z,13.07
2022-10-31T09:38:20.024Z,13.22
2022-10-31T09:41:11.393Z,13.32
2022-10-31T09:43:49.435Z,13.43
2022-10-31T09:46:22.076Z,13.55
2022-10-31T09:49:06.965Z,13.79
2022-10-31T09:51:35.575Z,13.90
2022-10-31T09:54:13.473Z,14.03
2022-10-31T09:56:44.480Z,14.08
2022-10-31T09:59:40.013Z,14.22
2022-10-31T10:02:35.770Z,14.41
2022-10-31T10:05:05.763Z,14.59
2022-10-31T10:08:01.871Z,14.78
2022-10-31T10:10:52.603Z,15.00
2022-10-31T10:13:19.205Z,15.15
2022-10-31T10:15:54.722Z,15.23
2022-10-31T10:18:31.921Z,15.37
2022-10-31T10:21:27.792Z,15.46
2022-10-31T10:24:16.245Z,15.59
2022-10-31T10:26:51.657Z,15.66
2022-10-31T10:29:46.595Z,15.72
2022-10-31T10:32:23.311Z,15.88
2022-10-31T10:34:59.800Z,15.90
2022-10-31T10:37:39.359Z,16.00
2022-10-31T10:40:22.414Z,16.12
2022-10-31T10:43:23.623Z,16.35
2022-10-31T10:46:34.976Z,16.48
2022-10-31T10:49:20.493Z,16.56
2022-10-31T10:52:35.234Z,16.64
2022-10-31T10:55:38.288Z,16.61
2022-10-31T10:58:09.315Z,16.76
2022-10-31T11:00:44.022Z,16.90
2022-10-31T11:03:14.566Z,16.90
2022-10-31T11:05:53.133Z,16.95
2022-10-31T11:08:27.686Z,16.98
2022-10-31T11:11:05.465Z,17.04
2022-10-31T11:13:33.784Z,17.16
2022-10-31T11:16:08.690Z,17.29
2022-10-31T11:18:40.245Z,17.40
2022-10-31T11:21:07.157Z,17.50
2022-10-31T11:23:34.446Z,17.58
2022-10-31T11:26:06.128Z,17.76
2022-10-31T11:28:38.003Z,17.85
2022-10-31T11:31:14.858Z,18.02
2022-10-31T11:33:48.928Z,18.01
2022-10-31T11:36:24.847Z,18.10
2022-10-31T11:38:52.913Z,18.23
2022-10-31T11:41:39.503Z,18.39
2022-10-31T11:44:14.344Z,18.56
2022-10-31T11:46:53.369Z,18.88
2022-10-31T11:49:43.320Z,19.14
2022-10-31T11:52:44.659Z,19.32
2022-10-31T11:55:11.234Z,19.51
2022-10-31T11:57:46.787Z,19.72
2022-10-31T12:00:22.621Z,19.99
2022-10-31T12:02:49.786Z,20.09
2022-10-31T12:05:23.447Z,20.17
2022-10-31T12:07:50.341Z,20.23
2022-10-31T12:10:20.902Z,20.27
2022-10-31T12:13:18.188Z,20.00
2022-10-31T12:15:55.217Z,19.86
2022-10-31T12:18:43.534Z,19.68
2022-10-31T12:21:21.487Z,19.66
2022-10-31T12:23:56.897Z,19.50
2022-10-31T12:26:58.370Z,19.57
2022-10-31T12:29:27.754Z,19.38
2022-10-31T12:32:09.462Z,19.35
2022-10-31T12:35:01.228Z,19.42
2022-10-31T12:37:49.508Z,19.37
2022-10-31T12:40:21.996Z,19.22
2022-10-31T12:43:03.921Z,19.15
2022-10-31T12:45:52.637Z,19.12
2022-10-31T12:48:43.984Z,19.09
2022-10-31T12:51:30.931Z,19.05
2022-10-31T12:54:25.310Z,18.90
2022-10-31T12:57:03.911Z,18.86
2022-10-31T12:59:37.163Z,18.92
2022-10-31T13:02:24.230Z,18.85
2022-10-31T13:04:56.613Z,18.85
2022-10-31T13:07:41.478Z,18.71
2022-10-31T13:10:32.610Z,18.57
2022-10-31T13:13:11.845Z,18.58
2022-10-31T13:15:58.902Z,18.51
2022-10-31T13:18:41.408Z,18.40
2022-10-31T13:21:20.147Z,18.28
2022-10-31T13:23:52.021Z,18.23
2022-10-31T13:26:37.942Z,18.25
2022-10-31T13:29:32.678Z,18.03
2022-10-31T13:32:01.891Z,17.97
2022-10-31T13:34:34.312Z,17.91
2022-10-31T13:37:22.292Z,17.99
2022-10-31T13:40:19.687Z,17.97
2022-10-31T13:42:56.419Z,17.91
2022-10-31T13:45:25.082Z,17.74
2022-10-31T13:48:17.262Z,17.72
2022-10-31T13:50:56.479Z,17.73
2022-10-31T13:53:36.945Z,17.81
2022-10-31T13:56:09.508Z,17.71
2022-10-31T13:58:38.762Z,17.81
2022-10-31T14:01:11.569Z,17.84
2022-10-31T14:06:44.134Z,17.69
2022-10-31T14:09:33.075Z,17.57
2022-10-31T14:12:05.004Z,17.59
2022-10-31T14:14:36.300Z,17.41
2022-10-31T14:17:03.388Z,17.59
2022-10-31T14:19:30.000Z,17.47
2022-10-31T14:21:56.610Z,17.38
2022-10-31T14:24:26.210Z,17.29
2022-10-31T14:26:57.353Z,17.21
2022-10-31T14:29:27.099Z,17.23
2022-10-31T14:31:56.499Z,17.21
2022-10-31T14:34:36.614Z,17.11
2022-10-31T14:37:15.551Z,17.16
2022-10-31T14:40:06.737Z,17.10
2022-10-31T14:42:56.296Z,17.04
2022-10-31T14:45:47.617Z,17.04
2022-10-31T14:48:38.359Z,17.04
2022-10-31T14:51:16.057Z,16.93
2022-10-31T14:53:55.947Z,16.99
2022-10-31T14:56:27.848Z,16.94
2022-10-31T14:58:57.788Z,17.21
2022-10-31T15:01:29.673Z,17.01
2022-10-31T15:04:22.434Z,16.88
2022-10-31T15:06:55.059Z,16.79
2022-10-31T15:09:32.587Z,16.82
2022-10-31T15:12:21.707Z,16.62
2022-10-31T15:14:48.272Z,16.55
2022-10-31T15:17:15.014Z,16.50
2022-10-31T15:19:43.311Z,16.38
2022-10-31T15:22:17.297Z,16.44
2022-10-31T15:24:46.867Z,16.38
2022-10-31T15:27:16.646Z,16.29
2022-10-31T15:29:54.932Z,16.25
2022-10-31T15:32:29.466Z,16.22
2022-10-31T15:34:58.124Z,16.14
2022-10-31T15:37:26.791Z,16.16
2022-10-31T15:39:53.522Z,16.13
2022-10-31T15:42:22.970Z,16.08
2022-10-31T15:44:56.775Z,15.95
2022-10-31T15:47:25.465Z,15.89
2022-10-31T15:49:55.226Z,15.78
2022-10-31T15:52:33.068Z,15.69
2022-10-31T15:55:02.877Z,15.65
2022-10-31T15:57:29.930Z,15.60
2022-10-31T15:59:56.740Z,15.53
2022-10-31T16:02:28.282Z,15.58
2022-10-31T16:05:02.425Z,15.56
2022-10-31T16:07:30.439Z,15.55
2022-10-31T16:10:01.798Z,15.50
2022-10-31T16:12:43.704Z,15.46
2022-10-31T16:15:18.600Z,15.42
2022-10-31T16:17:48.137Z,15.33
2022-10-31T16:20:26.364Z,15.15
2022-10-31T16:22:54.721Z,15.12
2022-10-31T16:25:25.170Z,15.08
2022-10-31T16:27:54.790Z,15.02
2022-10-31T16:30:47.878Z,14.78
2022-10-31T16:33:36.792Z,14.70
2022-10-31T16:36:36.497Z,14.67
2022-10-31T16:39:04.134Z,14.60
2022-10-31T16:41:30.947Z,14.53
2022-10-31T16:43:57.583Z,14.48
2022-10-31T16:46:27.090Z,14.43
2022-10-31T16:48:54.917Z,14.18
2022-10-31T16:51:21.431Z,14.20
2022-10-31T16:53:48.035Z,14.18
2022-10-31T16:56:24.512Z,14.16
2022-10-31T16:58:51.118Z,14.11
2022-10-31T17:01:17.822Z,14.12
2022-10-31T17:03:44.476Z,14.05
2022-10-31T17:06:14.333Z,14.09
2022-10-31T17:08:43.209Z,13.83
2022-10-31T17:11:22.152Z,13.86
2022-10-31T17:13:51.658Z,13.80
2022-10-31T17:16:18.238Z,13.83
2022-10-31T17:18:46.149Z,13.92
2022-10-31T17:21:19.043Z,13.88
2022-10-31T17:23:45.631Z,13.97
2022-10-31T17:26:12.178Z,13.98
2022-10-31T17:28:38.739Z,13.95
2022-10-31T17:31:20.263Z,14.02
2022-10-31T17:33:46.915Z,14.03
2022-10-31T17:36:13.505Z,14.04
2022-10-31T17:38:40.025Z,14.11
2022-10-31T17:41:11.269Z,14.15
2022-10-31T17:43:38.437Z,14.16
2022-10-31T17:46:05.519Z,14.11
2022-10-31T17:48:34.341Z,14.23
2022-10-31T17:51:03.185Z,14.18
2022-10-31T17:53:34.609Z,14.20
2022-10-31T17:56:06.691Z,14.19
2022-10-31T17:58:35.540Z,14.15
2022-10-31T18:01:12.880Z,14.27
2022-10-31T18:03:40.059Z,14.24
2022-10-31T18:06:07.276Z,14.14
2022-10-31T18:08:36.002Z,14.17
2022-10-31T18:11:10.968Z,14.14
2022-10-31T18:13:38.282Z,14.10
2022-10-31T18:16:14.458Z,14.22
2022-10-31T18:18:41.651Z,14.21
2022-10-31T18:21:11.582Z,14.18
2022-10-31T18:23:38.172Z,14.08
2022-10-31T18:26:04.988Z,14.00
2022-10-31T18:28:31.562Z,13.86
2022-10-31T18:31:01.287Z,13.93
2022-10-31T18:33:30.686Z,13.85
2022-10-31T18:35:57.303Z,13.80
2022-10-31T18:38:23.866Z,13.77
2022-10-31T18:40:53.367Z,13.71
2022-10-31T18:43:20.041Z,13.66
2022-10-31T18:45:48.659Z,13.60
2022-10-31T18:48:17.454Z,13.56
2022-10-31T18:50:46.892Z,13.53
2022-10-31T18:53:13.489Z,13.42
2022-10-31T18:55:44.150Z,13.45
2022-10-31T18:58:15.799Z,13.44
2022-10-31T19:00:45.823Z,13.21
2022-10-31T19:03:15.110Z,13.07
2022-10-31T19:05:44.014Z,13.13
2022-10-31T19:08:13.478Z,13.05
2022-10-31T19:10:40.677Z,12.91
2022-10-31T19:13:07.670Z,12.71
2022-10-31T19:15:35.586Z,12.63
2022-10-31T19:18:04.870Z,12.47
2022-10-31T19:20:31.945Z,12.44
2022-10-31T19:23:01.025Z,12.49
2022-10-31T19:25:27.883Z,12.59
2022-10-31T19:27:54.409Z,12.65
2022-10-31T19:30:21.621Z,12.55
2022-10-31T19:32:48.233Z,12.42
2022-10-31T19:35:15.201Z,12.44
2022-10-31T19:37:42.425Z,12.45
2022-10-31T19:40:10.914Z,12.40
2022-10-31T19:42:37.585Z,12.44
2022-10-31T19:45:05.032Z,12.35
2022-10-31T19:47:31.688Z,12.22
2022-10-31T19:49:58.363Z,12.17
2022-10-31T19:52:24.985Z,11.99
2022-10-31T19:54:52.080Z,11.94
2022-10-31T19:57:23.187Z,11.84
2022-10-31T19:59:57.300Z,11.77
2022-10-31T20:02:23.838Z,11.79
2022-10-31T20:04:50.341Z,11.48
2022-10-31T20:07:16.940Z,11.52
2022-10-31T20:09:46.063Z,11.60
2022-10-31T20:12:12.666Z,11.58
2022-10-31T20:14:39.184Z,11.49
2022-10-31T20:17:06.039Z,11.51
2022-10-31T20:19:32.798Z,11.51
2022-10-31T20:21:59.657Z,11.44
2022-10-31T20:24:26.217Z,11.09
2022-10-31T20:26:52.923Z,11.25
2022-10-31T20:29:20.068Z,11.26
2022-10-31T20:31:47.411Z,11.25
2022-10-31T20:34:17.219Z,11.04
2022-10-31T20:36:43.806Z,10.91
2022-10-31T20:39:10.499Z,10.92
2022-10-31T20:41:39.083Z,10.99
2022-10-31T20:44:06.396Z,10.94
2022-10-31T20:46:33.119Z,10.63
2022-10-31T20:49:01.951Z,10.63
2022-10-31T20:51:29.097Z,10.63
2022-10-31T20:53:57.384Z,10.69
2022-10-31T20:56:26.021Z,10.62
2022-10-31T20:58:56.814Z,10.24
2022-10-31T21:01:27.030Z,10.33
2022-10-31T21:03:53.789Z,10.39
2022-10-31T21:06:23.267Z,10.46
2022-10-31T21:08:50.919Z,10.39
2022-10-31T21:11:19.769Z,10.49
2022-10-31T21:13:47.735Z,10.41
2022-10-31T21:16:20.036Z,10.33
2022-10-31T21:18:47.672Z,10.46
2022-10-31T21:21:27.570Z,10.42
2022-10-31T21:24:01.716Z,10.44
2022-10-31T21:26:30.997Z,10.23
2022-10-31T21:28:58.632Z,10.03
2022-10-31T21:31:28.386Z,10.05
2022-10-31T21:33:55.876Z,10.15
2022-10-31T21:36:22.852Z,9.95
2022-10-31T21:38:51.373Z,9.76
2022-10-31T21:41:19.517Z,9.74
2022-10-31T21:43:48.262Z,9.64
2022-10-31T21:46:20.128Z,9.71
2022-10-31T21:48:47.186Z,9.74
2022-10-31T21:51:16.377Z,9.88
2022-10-31T21:54:01.397Z,9.93
2022-10-31T21:56:28.490Z,9.85
2022-10-31T21:58:55.753Z,9.82
2022-10-31T22:01:24.236Z,9.77
2022-10-31T22:03:51.213Z,9.71
2022-10-31T22:06:18.229Z,9.62
2022-10-31T22:08:47.046Z,9.42
2022-10-31T22:11:16.653Z,9.39
2022-10-31T22:13:45.126Z,9.45
2022-10-31T22:16:23.005Z,9.38
2022-10-31T22:18:53.945Z,9.31
2022-10-31T22:21:26.437Z,9.39
2022-10-31T22:24:02.048Z,9.16
2022-10-31T22:26:32.370Z,9.13
2022-10-31T22:29:02.496Z,9.14
2022-10-31T22:31:30.984Z,9.09
2022-10-31T22:33:57.846Z,9.13
2022-10-31T22:36:29.839Z,9.21
2022-10-31T22:38:57.244Z,9.26
2022-10-31T22:41:26.614Z,9.16
2022-10-31T22:43:54.660Z,9.01
2022-10-31T22:46:26.406Z,9.14
2022-10-31T22:48:55.957Z,9.22
2022-10-31T22:51:27.930Z,9.23
2022-10-31T22:53:57.909Z,9.05
2022-10-31T22:56:30.281Z,9.12
2022-10-31T22:58:57.656Z,9.08
2022-10-31T23:01:29.778Z,8.88
2022-10-31T23:03:56.635Z,8.82
2022-10-31T23:06:26.527Z,8.85
2022-10-31T23:08:53.649Z,8.94
2022-10-31T23:11:25.802Z,8.72
2022-10-31T23:14:10.036Z,8.63
2022-10-31T23:16:46.891Z,8.74
2022-10-31T23:19:25.278Z,8.81
2022-10-31T23:21:54.772Z,8.78
2022-10-31T23:24:44.801Z,9.02
2022-10-31T23:27:17.912Z,8.66
2022-10-31T23:29:44.526Z,8.61
2022-10-31T23:32:22.365Z,8.67
2022-10-31T23:34:51.188Z,8.67
2022-10-31T23:37:19.378Z,8.79
2022-10-31T23:39:46.512Z,8.73
2022-10-31T23:42:13.899Z,8.61
2022-10-31T23:44:40.661Z,8.52
2022-10-31T23:47:07.482Z,8.41
2022-10-31T23:49:34.787Z,8.44
2022-10-31T23:52:02.064Z,8.39
2022-10-31T23:54:28.692Z,8.48
2022-10-31T23:56:55.954Z,8.44
2022-10-31T23:59:24.731Z,8.38
